Jaguapita, Brazil
Current Conditions -  °F | °C
As of 2:30 AM on Wednesday 28 Jan 2015 (Local Time) from SBLO Reporting Station
Broken Clouds Broken Clouds  
Wind Chill: 72°   Ceiling: 200
Heat Index: 72°   Visibility: 6mi
Dew Point: 70°   Wind: 5mph
Humidity: 94%   Direction: 70°ENE
Pressure: 29.97"   Gusts: NA
Location:  23.12°S, 51.53°W
Report Text: SBLO 280430Z 07004KT 9999 BKN002 BKN005 BKN100 22/21 Q1015
Loading
Personal Weather Stations






























Interactive Weather Map New forecast layout! Learn more

10-Day Weather Forecast

Advertisements
Track Severe Weather on mobile